sensor_id;sensor_type;location;lat;lon;timestamp;pressure;altitude;pressure_sealevel;temperature;humidity
75424;BME280;64005;55.160;36.002;2024-01-27T00:00:47;98985.72;;;-1.55;75.94
75424;BME280;64005;55.160;36.002;2024-01-27T00:03:15;98987.09;;;-1.53;75.88
75424;BME280;64005;55.160;36.002;2024-01-27T00:05:42;98985.53;;;-1.44;75.55
75424;BME280;64005;55.160;36.002;2024-01-27T00:08:09;98979.03;;;-1.38;75.33
75424;BME280;64005;55.160;36.002;2024-01-27T00:10:38;98984.25;;;-1.36;74.93
75424;BME280;64005;55.160;36.002;2024-01-27T00:13:05;98986.97;;;-1.36;74.42
75424;BME280;64005;55.160;36.002;2024-01-27T00:15:32;98994.88;;;-1.40;74.57
75424;BME280;64005;55.160;36.002;2024-01-27T00:17:59;98994.47;;;-1.53;75.27
75424;BME280;64005;55.160;36.002;2024-01-27T00:20:26;98994.34;;;-1.64;75.54
75424;BME280;64005;55.160;36.002;2024-01-27T00:22:54;98998.69;;;-1.68;75.64
75424;BME280;64005;55.160;36.002;2024-01-27T00:25:21;99003.56;;;-1.70;75.89
75424;BME280;64005;55.160;36.002;2024-01-27T00:27:50;98998.41;;;-1.66;75.95
75424;BME280;64005;55.160;36.002;2024-01-27T00:30:17;98997.91;;;-1.63;76.05
75424;BME280;64005;55.160;36.002;2024-01-27T00:32:44;99003.66;;;-1.60;75.93
75424;BME280;64005;55.160;36.002;2024-01-27T00:35:11;98996.63;;;-1.55;75.61
75424;BME280;64005;55.160;36.002;2024-01-27T00:37:41;99002.31;;;-1.57;75.69
75424;BME280;64005;55.160;36.002;2024-01-27T00:40:09;98999.81;;;-1.64;75.96
75424;BME280;64005;55.160;36.002;2024-01-27T00:42:37;99004.44;;;-1.64;76.27
75424;BME280;64005;55.160;36.002;2024-01-27T00:45:07;99004.19;;;-1.63;76.01
75424;BME280;64005;55.160;36.002;2024-01-27T00:47:34;99006.47;;;-1.54;75.82
75424;BME280;64005;55.160;36.002;2024-01-27T00:50:01;98994.50;;;-1.48;75.54
75424;BME280;64005;55.160;36.002;2024-01-27T00:52:29;98997.50;;;-1.50;74.67
75424;BME280;64005;55.160;36.002;2024-01-27T00:54:56;99004.81;;;-1.55;75.00
75424;BME280;64005;55.160;36.002;2024-01-27T00:57:23;99009.31;;;-1.66;74.76
75424;BME280;64005;55.160;36.002;2024-01-27T00:59:51;99001.63;;;-1.74;75.43
75424;BME280;64005;55.160;36.002;2024-01-27T01:02:19;98997.47;;;-1.77;75.22
75424;BME280;64005;55.160;36.002;2024-01-27T01:04:46;99002.97;;;-1.72;75.18
75424;BME280;64005;55.160;36.002;2024-01-27T01:07:14;99008.44;;;-1.72;75.60
75424;BME280;64005;55.160;36.002;2024-01-27T01:09:41;99005.16;;;-1.74;75.85
75424;BME280;64005;55.160;36.002;2024-01-27T01:12:08;98998.16;;;-1.65;75.39
75424;BME280;64005;55.160;36.002;2024-01-27T01:14:35;99005.25;;;-1.64;75.29
75424;BME280;64005;55.160;36.002;2024-01-27T01:17:03;98989.72;;;-1.63;75.23
75424;BME280;64005;55.160;36.002;2024-01-27T01:19:32;99005.59;;;-1.60;74.46
75424;BME280;64005;55.160;36.002;2024-01-27T01:21:59;99001.47;;;-1.63;74.93
75424;BME280;64005;55.160;36.002;2024-01-27T01:24:26;98989.72;;;-1.63;74.85
75424;BME280;64005;55.160;36.002;2024-01-27T01:26:53;98994.88;;;-1.67;74.77
75424;BME280;64005;55.160;36.002;2024-01-27T01:29:21;99000.25;;;-1.72;75.47
75424;BME280;64005;55.160;36.002;2024-01-27T01:31:48;98995.59;;;-1.76;75.77
75424;BME280;64005;55.160;36.002;2024-01-27T01:34:15;98999.44;;;-1.72;75.16
75424;BME280;64005;55.160;36.002;2024-01-27T01:36:45;98998.41;;;-1.66;75.03
75424;BME280;64005;55.160;36.002;2024-01-27T01:39:14;99000.38;;;-1.62;74.89
75424;BME280;64005;55.160;36.002;2024-01-27T01:41:41;98999.59;;;-1.57;74.87
75424;BME280;64005;55.160;36.002;2024-01-27T01:44:08;99000.19;;;-1.55;75.06
75424;BME280;64005;55.160;36.002;2024-01-27T01:46:35;98989.00;;;-1.53;74.37
75424;BME280;64005;55.160;36.002;2024-01-27T01:49:03;98992.56;;;-1.53;74.62
75424;BME280;64005;55.160;36.002;2024-01-27T01:51:30;98991.16;;;-1.55;74.72
75424;BME280;64005;55.160;36.002;2024-01-27T01:53:59;98992.75;;;-1.60;74.24
75424;BME280;64005;55.160;36.002;2024-01-27T01:56:27;98997.94;;;-1.58;74.31
75424;BME280;64005;55.160;36.002;2024-01-27T01:58:54;99001.75;;;-1.59;74.76
75424;BME280;64005;55.160;36.002;2024-01-27T02:01:22;98992.44;;;-1.63;75.18
75424;BME280;64005;55.160;36.002;2024-01-27T02:03:52;98997.91;;;-1.63;75.44
75424;BME280;64005;55.160;36.002;2024-01-27T02:06:20;98989.56;;;-1.51;74.60
75424;BME280;64005;55.160;36.002;2024-01-27T02:08:48;98991.81;;;-1.43;74.78
75424;BME280;64005;55.160;36.002;2024-01-27T02:11:17;98992.34;;;-1.46;74.63
75424;BME280;64005;55.160;36.002;2024-01-27T02:13:44;98987.97;;;-1.47;74.82
75424;BME280;64005;55.160;36.002;2024-01-27T02:16:11;98995.00;;;-1.51;74.70
75424;BME280;64005;55.160;36.002;2024-01-27T02:18:38;98996.63;;;-1.55;75.09
75424;BME280;64005;55.160;36.002;2024-01-27T02:21:05;98990.09;;;-1.54;74.58
75424;BME280;64005;55.160;36.002;2024-01-27T02:23:33;98995.28;;;-1.53;74.63
75424;BME280;64005;55.160;36.002;2024-01-27T02:26:01;98987.09;;;-1.53;74.84
75424;BME280;64005;55.160;36.002;2024-01-27T02:28:28;98986.28;;;-1.53;74.93
75424;BME280;64005;55.160;36.002;2024-01-27T02:30:58;98998.53;;;-1.56;75.22
75424;BME280;64005;55.160;36.002;2024-01-27T02:33:25;99000.13;;;-1.60;74.90
75424;BME280;64005;55.160;36.002;2024-01-27T02:35:53;99005.22;;;-1.69;75.75
75424;BME280;64005;55.160;36.002;2024-01-27T02:38:21;99010.34;;;-1.72;76.11
75424;BME280;64005;55.160;36.002;2024-01-27T02:40:49;99003.06;;;-1.67;75.95
75424;BME280;64005;55.160;36.002;2024-01-27T02:43:17;98999.56;;;-1.62;75.68
75424;BME280;64005;55.160;36.002;2024-01-27T02:45:44;99010.72;;;-1.64;75.19
75424;BME280;64005;55.160;36.002;2024-01-27T02:48:12;99005.78;;;-1.67;75.41
75424;BME280;64005;55.160;36.002;2024-01-27T02:50:39;99005.72;;;-1.72;76.02
75424;BME280;64005;55.160;36.002;2024-01-27T02:53:06;99016.91;;;-1.73;75.86
75424;BME280;64005;55.160;36.002;2024-01-27T02:55:33;99012.78;;;-1.76;75.62
75424;BME280;64005;55.160;36.002;2024-01-27T02:58:00;99015.50;;;-1.76;75.73
75424;BME280;64005;55.160;36.002;2024-01-27T03:00:29;99016.91;;;-1.73;75.27
75424;BME280;64005;55.160;36.002;2024-01-27T03:02:56;99020.41;;;-1.73;75.53
75424;BME280;64005;55.160;36.002;2024-01-27T03:05:24;99024.31;;;-1.69;75.32
75424;BME280;64005;55.160;36.002;2024-01-27T03:07:51;99020.16;;;-1.71;74.84
75424;BME280;64005;55.160;36.002;2024-01-27T03:10:19;99025.00;;;-1.78;75.29
75424;BME280;64005;55.160;36.002;2024-01-27T03:12:46;99027.19;;;-1.80;75.22
75424;BME280;64005;55.160;36.002;2024-01-27T03:15:14;99024.38;;;-1.85;75.60
75424;BME280;64005;55.160;36.002;2024-01-27T03:17:42;99025.19;;;-1.85;75.27
75424;BME280;64005;55.160;36.002;2024-01-27T03:20:10;99033.13;;;-1.83;75.67
75424;BME280;64005;55.160;36.002;2024-01-27T03:22:37;99034.59;;;-1.76;74.92
75424;BME280;64005;55.160;36.002;2024-01-27T03:25:06;99036.25;;;-1.75;74.67
75424;BME280;64005;55.160;36.002;2024-01-27T03:27:34;99036.78;;;-1.73;75.07
75424;BME280;64005;55.160;36.002;2024-01-27T03:30:01;99039.78;;;-1.74;74.85
75424;BME280;64005;55.160;36.002;2024-01-27T03:32:31;99045.78;;;-1.72;74.59
75424;BME280;64005;55.160;36.002;2024-01-27T03:35:00;99043.06;;;-1.72;74.43
75424;BME280;64005;55.160;36.002;2024-01-27T03:37:31;99042.84;;;-1.66;74.08
75424;BME280;64005;55.160;36.002;2024-01-27T03:39:58;99050.22;;;-1.66;74.21
75424;BME280;64005;55.160;36.002;2024-01-27T03:42:26;99056.50;;;-1.66;74.51
75424;BME280;64005;55.160;36.002;2024-01-27T03:44:53;99065.84;;;-1.62;73.89
75424;BME280;64005;55.160;36.002;2024-01-27T03:47:21;99069.09;;;-1.60;74.29
75424;BME280;64005;55.160;36.002;2024-01-27T03:49:48;99067.22;;;-1.59;74.26
75424;BME280;64005;55.160;36.002;2024-01-27T03:52:16;99074.25;;;-1.63;74.40
75424;BME280;64005;55.160;36.002;2024-01-27T03:54:44;99076.41;;;-1.65;74.31
75424;BME280;64005;55.160;36.002;2024-01-27T03:57:11;99079.66;;;-1.68;75.00
75424;BME280;64005;55.160;36.002;2024-01-27T03:59:40;99078.50;;;-1.72;74.55
75424;BME280;64005;55.160;36.002;2024-01-27T04:02:07;99085.94;;;-1.68;74.52
75424;BME280;64005;55.160;36.002;2024-01-27T04:04:35;99081.38;;;-1.62;74.70
75424;BME280;64005;55.160;36.002;2024-01-27T04:07:02;99088.28;;;-1.54;73.96
75424;BME280;64005;55.160;36.002;2024-01-27T04:09:31;99091.84;;;-1.54;73.62
75424;BME280;64005;55.160;36.002;2024-01-27T04:11:58;99091.25;;;-1.56;74.67
75424;BME280;64005;55.160;36.002;2024-01-27T04:14:25;99102.94;;;-1.61;74.92
75424;BME280;64005;55.160;36.002;2024-01-27T04:16:53;99106.13;;;-1.69;74.57
75424;BME280;64005;55.160;36.002;2024-01-27T04:19:20;99100.50;;;-1.79;75.43
75424;BME280;64005;55.160;36.002;2024-01-27T04:21:47;99097.97;;;-1.85;75.35
75424;BME280;64005;55.160;36.002;2024-01-27T04:24:14;99100.97;;;-1.87;75.71
75424;BME280;64005;55.160;36.002;2024-01-27T04:26:43;99098.25;;;-1.87;75.79
75424;BME280;64005;55.160;36.002;2024-01-27T04:29:11;99110.28;;;-1.83;75.43
75424;BME280;64005;55.160;36.002;2024-01-27T04:31:41;99116.22;;;-1.86;75.32
75424;BME280;64005;55.160;36.002;2024-01-27T04:34:08;99115.16;;;-1.85;74.94
75424;BME280;64005;55.160;36.002;2024-01-27T04:36:35;99121.69;;;-1.86;75.58
75424;BME280;64005;55.160;36.002;2024-01-27T04:39:03;99125.25;;;-1.85;74.91
75424;BME280;64005;55.160;36.002;2024-01-27T04:41:31;99131.28;;;-1.83;75.28
75424;BME280;64005;55.160;36.002;2024-01-27T04:43:59;99123.69;;;-1.81;74.89
75424;BME280;64005;55.160;36.002;2024-01-27T04:46:26;99120.44;;;-1.78;75.32
75424;BME280;64005;55.160;36.002;2024-01-27T04:48:54;99127.53;;;-1.77;74.72
75424;BME280;64005;55.160;36.002;2024-01-27T04:51:22;99133.00;;;-1.77;74.59
75424;BME280;64005;55.160;36.002;2024-01-27T04:53:49;99126.91;;;-1.84;74.95
75424;BME280;64005;55.160;36.002;2024-01-27T04:56:16;99136.47;;;-1.82;74.57
75424;BME280;64005;55.160;36.002;2024-01-27T04:58:44;99133.81;;;-1.77;74.84
75424;BME280;64005;55.160;36.002;2024-01-27T05:01:12;99134.88;;;-1.78;74.20
75424;BME280;64005;55.160;36.002;2024-01-27T05:03:40;99143.59;;;-1.81;74.48
75424;BME280;64005;55.160;36.002;2024-01-27T05:06:07;99141.34;;;-1.84;74.29
75424;BME280;64005;55.160;36.002;2024-01-27T05:08:35;99144.09;;;-1.84;74.47
75424;BME280;64005;55.160;36.002;2024-01-27T05:11:03;99149.78;;;-1.85;74.36
75424;BME280;64005;55.160;36.002;2024-01-27T05:13:30;99158.78;;;-1.85;73.93
75424;BME280;64005;55.160;36.002;2024-01-27T05:15:57;99153.03;;;-1.88;74.93
75424;BME280;64005;55.160;36.002;2024-01-27T05:18:26;99152.19;;;-1.89;74.80
75424;BME280;64005;55.160;36.002;2024-01-27T05:20:53;99155.50;;;-1.87;74.60
75424;BME280;64005;55.160;36.002;2024-01-27T05:23:20;99153.09;;;-1.83;74.52
75424;BME280;64005;55.160;36.002;2024-01-27T05:25:47;99161.31;;;-1.78;74.37
75424;BME280;64005;55.160;36.002;2024-01-27T05:28:14;99162.09;;;-1.83;74.67
75424;BME280;64005;55.160;36.002;2024-01-27T05:30:42;99167.16;;;-1.91;74.40
75424;BME280;64005;55.160;36.002;2024-01-27T05:33:09;99175.09;;;-1.90;75.03
75424;BME280;64005;55.160;36.002;2024-01-27T05:35:38;99176.41;;;-1.92;75.17
75424;BME280;64005;55.160;36.002;2024-01-27T05:38:06;99168.72;;;-1.95;74.83
75424;BME280;64005;55.160;36.002;2024-01-27T05:40:33;99178.81;;;-1.96;75.00
75424;BME280;64005;55.160;36.002;2024-01-27T05:43:00;99175.31;;;-1.91;74.93
75424;BME280;64005;55.160;36.002;2024-01-27T05:45:28;99172.34;;;-1.90;74.67
75424;BME280;64005;55.160;36.002;2024-01-27T05:47:56;99167.41;;;-1.93;75.43
75424;BME280;64005;55.160;36.002;2024-01-27T05:50:24;99169.31;;;-1.93;74.78
75424;BME280;64005;55.160;36.002;2024-01-27T05:52:52;99174.78;;;-1.93;75.23
75424;BME280;64005;55.160;36.002;2024-01-27T05:55:19;99173.44;;;-1.91;74.68
75424;BME280;64005;55.160;36.002;2024-01-27T05:57:47;99178.69;;;-1.84;74.81
75424;BME280;64005;55.160;36.002;2024-01-27T06:00:14;99173.31;;;-1.79;75.02
75424;BME280;64005;55.160;36.002;2024-01-27T06:02:41;99183.72;;;-1.76;74.51
75424;BME280;64005;55.160;36.002;2024-01-27T06:05:09;99183.72;;;-1.76;74.34
75424;BME280;64005;55.160;36.002;2024-01-27T06:07:37;99191.06;;;-1.77;74.19
75424;BME280;64005;55.160;36.002;2024-01-27T06:10:09;99191.66;;;-1.75;73.95
75424;BME280;64005;55.160;36.002;2024-01-27T06:12:37;99196.09;;;-1.69;74.36
75424;BME280;64005;55.160;36.002;2024-01-27T06:15:05;99200.53;;;-1.63;73.85
75424;BME280;64005;55.160;36.002;2024-01-27T06:17:35;99203.75;;;-1.66;74.66
75424;BME280;64005;55.160;36.002;2024-01-27T06:20:02;99208.16;;;-1.65;74.63
75424;BME280;64005;55.160;36.002;2024-01-27T06:22:30;99209.22;;;-1.66;74.39
75424;BME280;64005;55.160;36.002;2024-01-27T06:24:58;99208.16;;;-1.65;74.29
75424;BME280;64005;55.160;36.002;2024-01-27T06:27:27;99213.59;;;-1.65;74.63
75424;BME280;64005;55.160;36.002;2024-01-27T06:29:55;99209.31;;;-1.61;75.06
75424;BME280;64005;55.160;36.002;2024-01-27T06:32:22;99214.59;;;-1.54;74.92
75424;BME280;64005;55.160;36.002;2024-01-27T06:34:49;99212.16;;;-1.50;74.44
75424;BME280;64005;55.160;36.002;2024-01-27T06:37:16;99211.66;;;-1.47;74.19
75424;BME280;64005;55.160;36.002;2024-01-27T06:39:44;99215.28;;;-1.42;74.58
75424;BME280;64005;55.160;36.002;2024-01-27T06:42:11;99218.25;;;-1.43;74.54
75424;BME280;64005;55.160;36.002;2024-01-27T06:44:39;99218.59;;;-1.40;74.49
75424;BME280;64005;55.160;36.002;2024-01-27T06:47:07;99218.66;;;-1.35;74.42
75424;BME280;64005;55.160;36.002;2024-01-27T06:49:34;99224.16;;;-1.30;74.63
75424;BME280;64005;55.160;36.002;2024-01-27T06:52:02;99231.09;;;-1.22;73.80
75424;BME280;64005;55.160;36.002;2024-01-27T06:54:29;99224.47;;;-1.26;74.46
75424;BME280;64005;55.160;36.002;2024-01-27T06:56:58;99231.34;;;-1.24;73.85
75424;BME280;64005;55.160;36.002;2024-01-27T06:59:26;99231.56;;;-1.25;74.40
75424;BME280;64005;55.160;36.002;2024-01-27T07:01:54;99234.06;;;-1.24;74.62
75424;BME280;64005;55.160;36.002;2024-01-27T07:04:23;99239.66;;;-1.13;74.73
75424;BME280;64005;55.160;36.002;2024-01-27T07:06:50;99243.19;;;-1.13;74.04
75424;BME280;64005;55.160;36.002;2024-01-27T07:09:17;99243.91;;;-1.23;74.61
75424;BME280;64005;55.160;36.002;2024-01-27T07:11:44;99231.91;;;-1.22;74.02
75424;BME280;64005;55.160;36.002;2024-01-27T07:14:12;99240.97;;;-1.16;74.52
75424;BME280;64005;55.160;36.002;2024-01-27T07:16:39;99241.88;;;-1.10;74.26
75424;BME280;64005;55.160;36.002;2024-01-27T07:19:07;99242.44;;;-1.08;74.28
75424;BME280;64005;55.160;36.002;2024-01-27T07:21:35;99246.25;;;-1.09;74.04
75424;BME280;64005;55.160;36.002;2024-01-27T07:24:03;99250.06;;;-1.10;74.26
75424;BME280;64005;55.160;36.002;2024-01-27T07:26:30;99250.88;;;-1.10;73.89
75424;BME280;64005;55.160;36.002;2024-01-27T07:28:57;99250.25;;;-1.17;74.00
75424;BME280;64005;55.160;36.002;2024-01-27T07:31:25;99261.34;;;-1.24;74.42
75424;BME280;64005;55.160;36.002;2024-01-27T07:33:52;99254.66;;;-1.33;75.12
75424;BME280;64005;55.160;36.002;2024-01-27T07:36:21;99258.22;;;-1.32;75.10
75424;BME280;64005;55.160;36.002;2024-01-27T07:38:48;99267.81;;;-1.30;75.54
75424;BME280;64005;55.160;36.002;2024-01-27T07:41:16;99273.88;;;-1.28;74.87
75424;BME280;64005;55.160;36.002;2024-01-27T07:43:43;99273.34;;;-1.25;75.42
75424;BME280;64005;55.160;36.002;2024-01-27T07:46:10;99273.94;;;-1.23;74.84
75424;BME280;64005;55.160;36.002;2024-01-27T07:48:37;99285.97;;;-1.18;74.78
75424;BME280;64005;55.160;36.002;2024-01-27T07:51:05;99288.41;;;-1.22;74.19
75424;BME280;64005;55.160;36.002;2024-01-27T07:53:34;99284.19;;;-1.30;74.47
75424;BME280;64005;55.160;36.002;2024-01-27T07:56:01;99289.00;;;-1.37;75.37
75424;BME280;64005;55.160;36.002;2024-01-27T07:58:28;99291.44;;;-1.40;75.62
75424;BME280;64005;55.160;36.002;2024-01-27T08:00:55;99292.09;;;-1.50;75.81
75424;BME280;64005;55.160;36.002;2024-01-27T08:03:22;99298.63;;;-1.51;76.18
75424;BME280;64005;55.160;36.002;2024-01-27T08:05:50;99297.78;;;-1.51;76.19
75424;BME280;64005;55.160;36.002;2024-01-27T08:08:17;99301.03;;;-1.54;76.36
75424;BME280;64005;55.160;36.002;2024-01-27T08:10:45;99305.44;;;-1.53;75.89
75424;BME280;64005;55.160;36.002;2024-01-27T08:13:13;99300.22;;;-1.55;75.52
75424;BME280;64005;55.160;36.002;2024-01-27T08:15:41;99305.84;;;-1.62;75.80
75424;BME280;64005;55.160;36.002;2024-01-27T08:18:14;99315.34;;;-1.64;75.86
75424;BME280;64005;55.160;36.002;2024-01-27T08:20:41;99314.50;;;-1.65;76.45
75424;BME280;64005;55.160;36.002;2024-01-27T08:23:08;99319.31;;;-1.72;76.39
75424;BME280;64005;55.160;36.002;2024-01-27T08:25:35;99316.25;;;-1.75;76.28
75424;BME280;64005;55.160;36.002;2024-01-27T08:28:04;99327.66;;;-1.78;76.36
75424;BME280;64005;55.160;36.002;2024-01-27T08:30:32;99321.13;;;-1.77;76.66
75424;BME280;64005;55.160;36.002;2024-01-27T08:32:59;99325.59;;;-1.71;76.37
75424;BME280;64005;55.160;36.002;2024-01-27T08:35:26;99323.75;;;-1.66;76.19
75424;BME280;64005;55.160;36.002;2024-01-27T08:37:54;99322.75;;;-1.60;76.30
75424;BME280;64005;55.160;36.002;2024-01-27T08:40:21;99330.72;;;-1.58;76.25
75424;BME280;64005;55.160;36.002;2024-01-27T08:42:48;99320.13;;;-1.54;76.24
75424;BME280;64005;55.160;36.002;2024-01-27T08:45:17;99329.03;;;-1.42;76.13
75424;BME280;64005;55.160;36.002;2024-01-27T08:47:44;99331.34;;;-1.34;76.27
75424;BME280;64005;55.160;36.002;2024-01-27T08:50:11;99327.03;;;-1.30;75.60
75424;BME280;64005;55.160;36.002;2024-01-27T08:52:38;99327.94;;;-1.25;75.88
75424;BME280;64005;55.160;36.002;2024-01-27T08:55:06;99325.25;;;-1.20;74.98
75424;BME280;64005;55.160;36.002;2024-01-27T08:57:34;99334.84;;;-1.17;75.77
75424;BME280;64005;55.160;36.002;2024-01-27T09:00:01;99322.81;;;-1.21;75.64
75424;BME280;64005;55.160;36.002;2024-01-27T09:02:33;99329.41;;;-1.17;76.02
75424;BME280;64005;55.160;36.002;2024-01-27T09:05:00;99330.53;;;-1.13;75.63
75424;BME280;64005;55.160;36.002;2024-01-27T09:07:29;99330.69;;;-1.03;75.48
75424;BME280;64005;55.160;36.002;2024-01-27T09:09:56;99334.06;;;-0.96;75.13
75424;BME280;64005;55.160;36.002;2024-01-27T09:12:24;99336.84;;;-0.91;75.35
75424;BME280;64005;55.160;36.002;2024-01-27T09:14:51;99341.81;;;-0.88;75.56
75424;BME280;64005;55.160;36.002;2024-01-27T09:17:20;99340.16;;;-0.89;75.23
75424;BME280;64005;55.160;36.002;2024-01-27T09:19:48;99335.13;;;-0.97;75.57
75424;BME280;64005;55.160;36.002;2024-01-27T09:22:16;99339.28;;;-0.94;75.29
75424;BME280;64005;55.160;36.002;2024-01-27T09:24:44;99342.31;;;-0.91;75.06
75424;BME280;64005;55.160;36.002;2024-01-27T09:27:11;99344.78;;;-0.89;75.23
75424;BME280;64005;55.160;36.002;2024-01-27T09:29:38;99352.16;;;-0.90;74.86
75424;BME280;64005;55.160;36.002;2024-01-27T09:32:06;99342.06;;;-0.89;74.79
75424;BME280;64005;55.160;36.002;2024-01-27T09:34:33;99346.22;;;-0.87;75.76
75424;BME280;64005;55.160;36.002;2024-01-27T09:37:02;99346.63;;;-0.95;74.98
75424;BME280;64005;55.160;36.002;2024-01-27T09:39:31;99350.50;;;-0.91;75.50
75424;BME280;64005;55.160;36.002;2024-01-27T09:42:00;99345.94;;;-0.85;74.91
75424;BME280;64005;55.160;36.002;2024-01-27T09:44:28;99348.75;;;-0.80;74.97
75424;BME280;64005;55.160;36.002;2024-01-27T09:46:56;99362.13;;;-0.78;74.91
75424;BME280;64005;55.160;36.002;2024-01-27T09:49:25;99369.50;;;-0.79;75.33
75424;BME280;64005;55.160;36.002;2024-01-27T09:51:53;99359.72;;;-0.75;75.26
75424;BME280;64005;55.160;36.002;2024-01-27T09:54:23;99363.84;;;-0.72;75.33
75424;BME280;64005;55.160;36.002;2024-01-27T09:56:51;99368.41;;;-0.78;75.27
75424;BME280;64005;55.160;36.002;2024-01-27T09:59:19;99366.75;;;-0.79;74.98
75424;BME280;64005;55.160;36.002;2024-01-27T10:01:48;99374.75;;;-0.72;75.49
75424;BME280;64005;55.160;36.002;2024-01-27T10:04:18;99384.13;;;-0.68;75.19
75424;BME280;64005;55.160;36.002;2024-01-27T10:06:46;99388.19;;;-0.71;74.71
75424;BME280;64005;55.160;36.002;2024-01-27T10:09:15;99384.63;;;-0.71;75.07
75424;BME280;64005;55.160;36.002;2024-01-27T10:11:46;99391.75;;;-0.70;75.12
75424;BME280;64005;55.160;36.002;2024-01-27T10:14:13;99395.78;;;-0.73;74.92
75424;BME280;64005;55.160;36.002;2024-01-27T10:16:41;99394.72;;;-0.72;74.71
75424;BME280;64005;55.160;36.002;2024-01-27T10:19:13;99394.66;;;-0.77;75.87
75424;BME280;64005;55.160;36.002;2024-01-27T10:21:41;99398.22;;;-0.76;75.48
75424;BME280;64005;55.160;36.002;2024-01-27T10:24:09;99399.28;;;-0.77;75.76
75424;BME280;64005;55.160;36.002;2024-01-27T10:26:36;99408.25;;;-0.82;75.99
75424;BME280;64005;55.160;36.002;2024-01-27T10:29:05;99405.75;;;-0.84;76.05
75424;BME280;64005;55.160;36.002;2024-01-27T10:31:34;99408.31;;;-0.77;76.00
75424;BME280;64005;55.160;36.002;2024-01-27T10:34:02;99412.38;;;-0.80;75.79
75424;BME280;64005;55.160;36.002;2024-01-27T10:36:39;99413.59;;;-0.70;75.46
75424;BME280;64005;55.160;36.002;2024-01-27T10:39:17;99414.72;;;-0.66;75.76
75424;BME280;64005;55.160;36.002;2024-01-27T10:41:47;99416.38;;;-0.65;74.72
75424;BME280;64005;55.160;36.002;2024-01-27T10:44:17;99423.38;;;-0.74;75.16
75424;BME280;64005;55.160;36.002;2024-01-27T10:46:45;99415.78;;;-0.89;75.23
75424;BME280;64005;55.160;36.002;2024-01-27T10:49:14;99427.22;;;-0.92;75.97
75424;BME280;64005;55.160;36.002;2024-01-27T10:51:44;99435.84;;;-1.00;75.80
75424;BME280;64005;55.160;36.002;2024-01-27T10:54:18;99429.47;;;-1.06;75.84
75424;BME280;64005;55.160;36.002;2024-01-27T10:56:46;99433.28;;;-1.07;76.21
75424;BME280;64005;55.160;36.002;2024-01-27T10:59:14;99430.13;;;-0.99;75.90
75424;BME280;64005;55.160;36.002;2024-01-27T11:01:44;99438.13;;;-0.92;74.93
75424;BME280;64005;55.160;36.002;2024-01-27T11:04:13;99438.41;;;-0.94;74.79
75424;BME280;64005;55.160;36.002;2024-01-27T11:06:42;99440.13;;;-0.88;74.91
75424;BME280;64005;55.160;36.002;2024-01-27T11:09:10;99437.41;;;-0.88;74.85
75424;BME280;64005;55.160;36.002;2024-01-27T11:11:39;99446.31;;;-0.92;74.66
75424;BME280;64005;55.160;36.002;2024-01-27T11:14:07;99443.28;;;-0.96;74.67
75424;BME280;64005;55.160;36.002;2024-01-27T11:16:35;99450.88;;;-0.98;74.76
75424;BME280;64005;55.160;36.002;2024-01-27T11:19:10;99445.19;;;-0.96;74.69
75424;BME280;64005;55.160;36.002;2024-01-27T11:21:38;99453.84;;;-0.99;75.63
75424;BME280;64005;55.160;36.002;2024-01-27T11:24:13;99456.03;;;-1.01;74.85
75424;BME280;64005;55.160;36.002;2024-01-27T11:26:41;99457.19;;;-0.97;75.34
75424;BME280;64005;55.160;36.002;2024-01-27T11:29:08;99453.13;;;-0.95;74.74
75424;BME280;64005;55.160;36.002;2024-01-27T11:31:45;99448.97;;;-0.97;74.32
75424;BME280;64005;55.160;36.002;2024-01-27T11:34:13;99453.19;;;-1.06;75.00
75424;BME280;64005;55.160;36.002;2024-01-27T11:36:44;99455.78;;;-1.16;74.75
75424;BME280;64005;55.160;36.002;2024-01-27T11:39:24;99455.38;;;-1.25;75.18
75424;BME280;64005;55.160;36.002;2024-01-27T11:41:52;99467.44;;;-1.38;75.25
75424;BME280;64005;55.160;36.002;2024-01-27T11:44:20;99465.63;;;-1.49;75.92
75424;BME280;64005;55.160;36.002;2024-01-27T11:46:47;99472.31;;;-1.56;75.95
75424;BME280;64005;55.160;36.002;2024-01-27T11:49:16;99483.47;;;-1.58;76.02
75424;BME280;64005;55.160;36.002;2024-01-27T11:51:44;99476.78;;;-1.50;75.61
75424;BME280;64005;55.160;36.002;2024-01-27T11:54:11;99484.47;;;-1.47;75.48
75424;BME280;64005;55.160;36.002;2024-01-27T11:56:38;99482.31;;;-1.45;75.94
75424;BME280;64005;55.160;36.002;2024-01-27T11:59:06;99481.47;;;-1.46;75.31
75424;BME280;64005;55.160;36.002;2024-01-27T12:01:33;99491.25;;;-1.50;75.82
75424;BME280;64005;55.160;36.002;2024-01-27T12:04:01;99490.94;;;-1.53;75.78
75424;BME280;64005;55.160;36.002;2024-01-27T12:06:30;99488.34;;;-1.60;75.65
75424;BME280;64005;55.160;36.002;2024-01-27T12:08:57;99494.72;;;-1.54;75.59
75424;BME280;64005;55.160;36.002;2024-01-27T12:11:25;99496.84;;;-1.56;75.90
75424;BME280;64005;55.160;36.002;2024-01-27T12:13:53;99496.69;;;-1.50;75.98
75424;BME280;64005;55.160;36.002;2024-01-27T12:16:21;99504.41;;;-1.47;75.30
75424;BME280;64005;55.160;36.002;2024-01-27T12:18:52;99504.66;;;-1.48;76.13
75424;BME280;64005;55.160;36.002;2024-01-27T12:21:20;99508.53;;;-1.44;76.03
75424;BME280;64005;55.160;36.002;2024-01-27T12:23:52;99504.50;;;-1.42;75.55
75424;BME280;64005;55.160;36.002;2024-01-27T12:26:21;99506.63;;;-1.44;75.73
75424;BME280;64005;55.160;36.002;2024-01-27T12:28:49;99512.59;;;-1.47;75.78
75424;BME280;64005;55.160;36.002;2024-01-27T12:31:16;99523.31;;;-1.57;75.26
75424;BME280;64005;55.160;36.002;2024-01-27T12:33:53;99526.19;;;-1.64;75.89
75424;BME280;64005;55.160;36.002;2024-01-27T12:36:21;99530.88;;;-1.76;75.78
75424;BME280;64005;55.160;36.002;2024-01-27T12:39:00;99543.47;;;-1.86;76.52
75424;BME280;64005;55.160;36.002;2024-01-27T12:41:28;99539.66;;;-1.85;76.56
75424;BME280;64005;55.160;36.002;2024-01-27T12:43:56;99545.72;;;-1.83;76.55
75424;BME280;64005;55.160;36.002;2024-01-27T12:46:23;99544.41;;;-1.81;76.20
75424;BME280;64005;55.160;36.002;2024-01-27T12:48:51;99553.66;;;-1.82;76.08
75424;BME280;64005;55.160;36.002;2024-01-27T12:51:18;99556.53;;;-1.88;75.98
75424;BME280;64005;55.160;36.002;2024-01-27T12:53:46;99556.91;;;-1.96;75.52